Weather at Frölunda Airfield

Public forecast

Using degrees Celsius for public forecast. Weather courtesy of forecast.io.

Closest aviation weather report (METAR) to Frölunda Airfield

Closest report is Stockholm-Bromma Airport, 9.4 nm (17.5 km) SE. Retrieved 2022/01/17 15:50 UTC (27 minutes ago):

ESSB 171550Z 28010KT CAVOK 00/M07 Q1013

Closest aviation forecast (TAF) to Frölunda Airfield

Forecast is more than 12 hours old.

Closest forecast is Stockholm-Bromma Airport, 9.4 nm (17.5 km) SE. Retrieved 2017/03/27 06:35 UTC (5 years ago):

TAF ESSB 270530Z 2706/2724 27008KT CAVOK BECMG 2710/2713 29015G25KT